createdAt,value
2022-11-15T00:01:38.402Z,0
2022-11-15T00:07:58.360Z,0
2022-11-15T00:14:21.321Z,0
2022-11-15T00:20:41.372Z,0
2022-11-15T00:27:07.659Z,0
2022-11-15T00:33:24.383Z,0
2022-11-15T00:39:47.347Z,0
2022-11-15T00:46:07.337Z,0
2022-11-15T00:52:30.355Z,0
2022-11-15T00:58:50.367Z,0
2022-11-15T01:05:13.370Z,0
2022-11-15T01:11:33.316Z,0
2022-11-15T01:17:56.414Z,0
2022-11-15T01:24:16.332Z,0
2022-11-15T01:30:39.350Z,0
2022-11-15T01:36:59.374Z,0
2022-11-15T01:43:22.405Z,0
2022-11-15T01:49:42.412Z,0
2022-11-15T01:56:05.339Z,0
2022-11-15T02:02:25.309Z,0
2022-11-15T02:08:48.370Z,0
2022-11-15T02:15:08.359Z,0
2022-11-15T02:21:31.381Z,0
2022-11-15T02:27:51.342Z,0
2022-11-15T02:34:14.397Z,0
2022-11-15T02:40:34.319Z,0
2022-11-15T02:46:57.326Z,0
2022-11-15T02:53:17.445Z,0
2022-11-15T02:59:40.356Z,0
2022-11-15T03:06:00.385Z,0
2022-11-15T03:12:23.333Z,0
2022-11-15T03:18:43.321Z,0
2022-11-15T03:25:06.323Z,0
2022-11-15T03:31:26.348Z,0
2022-11-15T03:37:49.394Z,0
2022-11-15T03:44:09.344Z,0
2022-11-15T03:50:32.368Z,0
2022-11-15T03:56:52.324Z,0
2022-11-15T04:03:15.306Z,0
2022-11-15T04:09:35.405Z,0
2022-11-15T04:15:58.327Z,0
2022-11-15T04:22:18.378Z,0
2022-11-15T04:28:41.350Z,0
2022-11-15T04:35:01.314Z,0
2022-11-15T04:58:26.374Z,0
2022-11-15T05:04:49.317Z,0
2022-11-15T05:11:09.358Z,0
2022-11-15T05:17:32.355Z,0
2022-11-15T05:23:52.324Z,0
2022-11-15T05:30:15.413Z,0
2022-11-15T05:36:35.345Z,0
2022-11-15T05:42:58.370Z,0
2022-11-15T05:49:18.340Z,0
2022-11-15T05:55:41.371Z,0
2022-11-15T06:02:01.416Z,0
2022-11-15T06:08:24.328Z,0
2022-11-15T06:14:44.431Z,1
2022-11-15T06:21:07.335Z,1
2022-11-15T06:27:27.330Z,5
2022-11-15T06:33:50.373Z,13
2022-11-15T06:40:10.322Z,31
2022-11-15T06:46:33.391Z,59
2022-11-15T06:52:53.343Z,87
2022-11-15T06:59:16.351Z,122
2022-11-15T07:05:36.369Z,162
2022-11-15T07:12:02.073Z,198
2022-11-15T07:18:19.422Z,253
2022-11-15T07:24:42.345Z,321
2022-11-15T07:31:02.362Z,397
2022-11-15T07:37:25.398Z,493
2022-11-15T07:43:45.370Z,607
2022-11-15T07:50:08.582Z,718
2022-11-15T07:56:28.335Z,808
2022-11-15T08:02:51.498Z,841
2022-11-15T08:09:11.387Z,884
2022-11-15T08:15:34.335Z,952
2022-11-15T08:21:54.367Z,1016
2022-11-15T08:28:17.342Z,1071
2022-11-15T08:34:37.332Z,1113
2022-11-15T08:41:00.693Z,1144
2022-11-15T08:47:20.449Z,1228
2022-11-15T08:53:43.370Z,1394
2022-11-15T09:00:03.343Z,1573
2022-11-15T09:06:27.139Z,1689
2022-11-15T09:12:47.381Z,1816
2022-11-15T09:19:11.783Z,1767
2022-11-15T09:25:30.837Z,1916
2022-11-15T09:31:53.509Z,2010
2022-11-15T09:38:13.591Z,2424
2022-11-15T09:44:36.650Z,2606
2022-11-15T09:50:56.363Z,2217
2022-11-15T09:57:19.433Z,2509
2022-11-15T10:19:31.931Z,3100
2022-11-15T10:25:51.351Z,2981
2022-11-15T10:32:14.361Z,2735
2022-11-15T10:38:34.633Z,3113
2022-11-15T10:44:57.316Z,2998
2022-11-15T10:51:17.347Z,3519
2022-11-15T10:57:40.340Z,3117
2022-11-15T11:04:00.353Z,3386
2022-11-15T11:10:49.606Z,3543
2022-11-15T11:16:43.361Z,3830
2022-11-15T11:23:06.376Z,1637
2022-11-15T11:29:26.322Z,2135
2022-11-15T11:35:49.408Z,1705
2022-11-15T11:42:09.547Z,2029
2022-11-15T11:48:32.592Z,2549
2022-11-15T11:54:52.387Z,4517
2022-11-15T12:01:15.398Z,2597
2022-11-15T12:07:35.498Z,1947
2022-11-15T12:13:58.357Z,2000
2022-11-15T12:20:18.391Z,2132
2022-11-15T12:26:41.320Z,2408
2022-11-15T12:33:01.345Z,2226
2022-11-15T12:39:24.338Z,2137
2022-11-15T12:45:44.315Z,1962
2022-11-15T12:52:07.396Z,2044
2022-11-15T12:58:27.327Z,2105
2022-11-15T13:04:50.319Z,1941
2022-11-15T13:11:10.396Z,1708
2022-11-15T13:17:33.320Z,3060
2022-11-15T13:23:53.391Z,2161
2022-11-15T13:30:16.347Z,1765
2022-11-15T13:36:36.363Z,1309
2022-11-15T13:42:59.372Z,1202
2022-11-15T13:49:19.363Z,997
2022-11-15T13:55:42.391Z,886
2022-11-15T14:02:02.354Z,693
2022-11-15T14:08:25.462Z,732
2022-11-15T14:14:45.381Z,849
2022-11-15T14:21:08.325Z,809
2022-11-15T14:27:28.384Z,867
2022-11-15T14:33:51.311Z,822
2022-11-15T14:40:11.360Z,686
2022-11-15T14:46:34.366Z,542
2022-11-15T14:52:54.332Z,468
2022-11-15T14:59:17.512Z,467
2022-11-15T15:05:37.387Z,434
2022-11-15T15:12:04.940Z,326
2022-11-15T15:18:20.962Z,213
2022-11-15T15:24:43.411Z,139
2022-11-15T15:48:26.260Z,39
2022-11-15T15:54:46.305Z,22
2022-11-15T16:01:09.444Z,9
2022-11-15T16:07:29.403Z,3
2022-11-15T16:13:52.350Z,1
2022-11-15T16:20:12.370Z,0
2022-11-15T16:26:35.347Z,0
2022-11-15T16:32:55.363Z,0
2022-11-15T16:39:18.356Z,0
2022-11-15T16:45:38.368Z,0
2022-11-15T16:52:01.377Z,0
2022-11-15T16:58:21.332Z,0
2022-11-15T17:04:44.400Z,0
2022-11-15T17:11:04.356Z,0
2022-11-15T17:17:27.300Z,0
2022-11-15T17:23:47.427Z,0
2022-11-15T17:30:10.361Z,0
2022-11-15T17:36:30.560Z,0
2022-11-15T17:42:53.395Z,0
2022-11-15T17:49:13.309Z,0
2022-11-15T17:55:36.381Z,0
2022-11-15T18:01:56.405Z,0
2022-11-15T18:08:19.364Z,0
2022-11-15T18:14:39.385Z,0
2022-11-15T18:21:02.367Z,0
2022-11-15T18:27:22.359Z,0
2022-11-15T18:33:45.331Z,0
2022-11-15T18:40:05.399Z,0
2022-11-15T18:46:28.341Z,0
2022-11-15T18:52:48.327Z,0
2022-11-15T18:59:11.551Z,0
2022-11-15T19:05:31.341Z,0
2022-11-15T19:11:54.398Z,0
2022-11-15T19:18:14.367Z,0
2022-11-15T19:24:37.463Z,0
2022-11-15T19:30:57.382Z,0
2022-11-15T19:37:20.424Z,0
2022-11-15T19:43:40.397Z,0
2022-11-15T19:50:03.466Z,0
2022-11-15T19:56:23.407Z,0
2022-11-15T20:02:46.362Z,0
2022-11-15T20:09:06.327Z,0
2022-11-15T20:15:29.463Z,0
2022-11-15T20:21:49.428Z,0
2022-11-15T20:28:12.372Z,0
2022-11-15T20:34:32.413Z,0
2022-11-15T20:40:59.953Z,0
2022-11-15T20:57:20.303Z,0
2022-11-15T21:03:40.344Z,0
2022-11-15T21:10:03.388Z,0
2022-11-15T21:16:23.415Z,0
2022-11-15T21:22:46.417Z,0
2022-11-15T21:29:06.668Z,0
2022-11-15T21:35:29.355Z,0
2022-11-15T21:41:49.345Z,0
2022-11-15T21:48:12.367Z,0
2022-11-15T21:54:32.421Z,0
2022-11-15T22:00:55.449Z,0
2022-11-15T22:07:15.443Z,0
2022-11-15T22:13:38.344Z,0
2022-11-15T22:19:58.646Z,0
2022-11-15T22:26:23.634Z,0
2022-11-15T22:32:41.399Z,0
2022-11-15T22:39:04.372Z,0
2022-11-15T22:45:24.337Z,0
2022-11-15T22:51:47.415Z,0
2022-11-15T22:58:07.338Z,0
2022-11-15T23:21:04.367Z,0
2022-11-15T23:27:24.304Z,0
2022-11-15T23:33:47.408Z,0
2022-11-15T23:40:07.365Z,0
2022-11-15T23:46:30.402Z,0
2022-11-15T23:52:50.323Z,0
2022-11-15T23:59:13.419Z,0
